Terminal Aerodrome Forecast
Issued by NWS

Home | Current Version | Previous Version | Graphics & Text | Print | Product List | Glossary On
Versions: 1 2 3 4 5 6 7 8 9 10 11 12 13 14
000
FTUS43 KICT 211455 AAA
TAFSLN
TAF AMD
KSLN 211455Z 2115/2212 19023G35KT P6SM SCT015 BKN025
     FM211630 21019G27KT P6SM VCSH BKN030
     FM211930 33017G25KT P6SM VCSH SCT045 SCT100 BKN150
     FM220000 34011G19KT P6SM BKN100
     FM220400 33008KT P6SM SCT250=

USA.gov is the U.S. government's official web portal to all federal, state and local government web resources and services.